Time;durP1;ratioP1;P1;durP2;ratioP2;P2;SDS_P1;SDS_P2;PMS_P1;PMS_P2;Temp;Humidity;BMP_temperature;BMP_pressure;BME280_temperature;BME280_humidity;BME280_pressure;Samples;Min_cycle;Max_cycle;Signal;HPM_P1;HPM_P2
2023/10/03 00:00:24;;;;;;;7.07;1.42;;;28.80;40.80;;;;;;5055566;28;20387;-64
2023/10/03 00:02:57;;;;;;;6.38;1.67;;;28.80;41.20;;;;;;5055857;28;20052;-63
2023/10/03 00:05:28;;;;;;;9.10;3.55;;;28.80;41.40;;;;;;5056658;28;20074;-62
2023/10/03 00:08:03;;;;;;;6.57;1.88;;;28.80;41.20;;;;;;5052980;28;20050;-64
2023/10/03 00:10:33;;;;;;;10.00;1.83;;;28.70;41.00;;;;;;5055142;28;20534;-65
2023/10/03 00:12:59;;;;;;;10.77;2.10;;;28.70;41.20;;;;;;5056796;28;20284;-63
2023/10/03 00:15:28;;;;;;;9.95;1.77;;;28.60;40.60;;;;;;5057718;28;20114;-64
2023/10/03 00:17:55;;;;;;;8.48;1.55;;;28.60;41.00;;;;;;5058013;28;20075;-64
2023/10/03 00:20:22;;;;;;;5.88;1.58;;;28.50;40.20;;;;;;5054726;28;20086;-63
2023/10/03 00:22:50;;;;;;;8.63;1.80;;;28.50;40.60;;;;;;5057999;28;20042;-66
2023/10/03 00:25:26;;;;;;;6.22;1.70;;;28.40;40.70;;;;;;5058770;28;20048;-64
2023/10/03 00:27:55;;;;;;;8.20;1.85;;;28.40;40.30;;;;;;5055290;28;20040;-66
2023/10/03 00:30:26;;;;;;;6.30;2.28;;;28.30;40.40;;;;;;5059718;28;20093;-63
2023/10/03 00:32:57;;;;;;;5.75;1.40;;;28.30;40.40;;;;;;5054800;28;20056;-65
2023/10/03 00:35:26;;;;;;;6.32;1.50;;;28.20;40.70;;;;;;5055130;28;20047;-65
2023/10/03 00:37:53;;;;;;;5.43;1.60;;;28.10;40.90;;;;;;5056397;28;20056;-67
2023/10/03 00:42:52;;;;;;;11.55;1.90;;;28.00;40.70;;;;;;5053882;28;20103;-63
2023/10/03 00:45:21;;;;;;;4.10;1.73;;;28.00;40.90;;;;;;5051492;28;20518;-64
2023/10/03 00:47:53;;;;;;;6.65;1.48;;;27.90;40.90;;;;;;5050478;28;20134;-63
2023/10/03 00:50:20;;;;;;;8.95;1.52;;;27.80;41.50;;;;;;5050568;28;20441;-65
2023/10/03 00:53:04;;;;;;;6.97;1.73;;;27.70;41.30;;;;;;5052864;28;20516;-63
2023/10/03 00:55:33;;;;;;;8.35;1.85;;;27.70;41.70;;;;;;5053237;28;20420;-65
2023/10/03 00:58:17;;;;;;;5.95;1.65;;;27.60;42.00;;;;;;5059684;28;20426;-63
2023/10/03 01:00:50;;;;;;;8.70;1.83;;;27.50;42.30;;;;;;5054768;28;20516;-62
2023/10/03 01:03:36;;;;;;;8.98;1.60;;;27.50;42.70;;;;;;5058094;28;20108;-64
2023/10/03 01:06:10;;;;;;;8.80;2.53;;;27.40;42.50;;;;;;5059243;28;20050;-63
2023/10/03 01:08:39;;;;;;;10.07;2.33;;;27.40;43.20;;;;;;5059684;28;20055;-65
2023/10/03 01:11:17;;;;;;;5.95;2.00;;;27.30;42.90;;;;;;5060485;28;20069;-64
2023/10/03 01:13:49;;;;;;;8.93;1.67;;;27.30;42.90;;;;;;5058450;28;20046;-64
2023/10/03 01:16:52;;;;;;;9.13;1.90;;;27.20;43.10;;;;;;5052621;28;20061;-65
2023/10/03 01:19:29;;;;;;;7.75;2.25;;;27.10;43.20;;;;;;5054667;28;20650;-65
2023/10/03 01:21:59;;;;;;;8.73;1.58;;;27.00;43.50;;;;;;5055961;28;20189;-65
2023/10/03 01:24:25;;;;;;;6.78;1.70;;;27.00;44.10;;;;;;5051608;28;20059;-64
2023/10/03 01:26:54;;;;;;;6.85;2.00;;;26.90;43.60;;;;;;5051119;28;20054;-64
2023/10/03 01:29:22;;;;;;;11.30;1.90;;;26.80;43.70;;;;;;5051199;28;20046;-62
2023/10/03 01:31:49;;;;;;;9.52;2.03;;;26.80;43.60;;;;;;5053329;28;20421;-63
2023/10/03 01:34:16;;;;;;;7.18;1.65;;;26.70;43.90;;;;;;5055865;28;20112;-63
2023/10/03 01:36:48;;;;;;;7.45;2.00;;;26.70;44.00;;;;;;5058031;28;20084;-63
2023/10/03 01:39:15;;;;;;;16.15;2.55;;;26.60;44.00;;;;;;5058211;28;20123;-64
2023/10/03 01:41:44;;;;;;;11.93;2.22;;;26.60;44.10;;;;;;5055850;28;20439;-64
2023/10/03 01:44:10;;;;;;;11.60;2.15;;;26.40;44.50;;;;;;5055445;28;20045;-62
2023/10/03 01:46:38;;;;;;;12.10;2.65;;;26.40;44.90;;;;;;5052255;28;20418;-63
2023/10/03 01:49:05;;;;;;;14.98;2.42;;;26.30;45.20;;;;;;5052388;28;20492;-63
2023/10/03 01:51:32;;;;;;;7.53;2.10;;;26.30;45.50;;;;;;5052738;28;20417;-64
2023/10/03 01:53:58;;;;;;;8.23;1.88;;;26.30;45.60;;;;;;5056239;28;20098;-62
2023/10/03 01:56:25;;;;;;;12.60;2.42;;;26.10;45.40;;;;;;5054005;28;20052;-64
2023/10/03 01:58:51;;;;;;;10.70;2.10;;;26.10;45.70;;;;;;5055035;28;20095;-64
2023/10/03 02:01:18;;;;;;;25.08;2.97;;;26.00;46.00;;;;;;5055311;28;20182;-62
2023/10/03 02:03:45;;;;;;;21.58;2.58;;;26.00;46.50;;;;;;5057762;28;20043;-63
2023/10/03 02:06:12;;;;;;;16.02;2.70;;;25.90;46.60;;;;;;5055534;28;20055;-67
2023/10/03 02:08:38;;;;;;;17.55;3.15;;;25.90;47.10;;;;;;5054940;28;20064;-63
2023/10/03 02:11:06;;;;;;;21.02;3.00;;;25.70;47.00;;;;;;5050902;28;20074;-65
2023/10/03 02:13:34;;;;;;;13.98;2.75;;;25.70;47.10;;;;;;5052146;28;20051;-63
2023/10/03 02:16:01;;;;;;;19.65;3.20;;;25.60;47.00;;;;;;5064373;28;20073;-64
2023/10/03 02:18:27;;;;;;;20.15;3.67;;;25.60;47.80;;;;;;5058103;28;20491;-65
2023/10/03 02:21:01;;;;;;;28.40;4.45;;;25.50;47.40;;;;;;5056843;28;20060;-64
2023/10/03 02:23:28;;;;;;;33.13;4.43;;;25.50;47.70;;;;;;5056342;28;20083;-63
2023/10/03 02:25:56;;;;;;;27.60;3.83;;;25.40;48.00;;;;;;5048357;28;20053;-63
2023/10/03 02:28:26;;;;;;;15.80;3.00;;;25.40;47.60;;;;;;5051523;28;20494;-66
2023/10/03 02:30:54;;;;;;;28.63;3.80;;;25.40;48.00;;;;;;5051042;28;21746;-66
2023/10/03 02:33:22;;;;;;;20.08;3.10;;;25.30;47.70;;;;;;5054866;28;20072;-68
2023/10/03 02:35:50;;;;;;;32.88;4.40;;;25.20;47.90;;;;;;5056585;28;20064;-64
2023/10/03 02:38:37;;;;;;;26.15;4.65;;;25.20;48.10;;;;;;5056986;28;20372;-65
2023/10/03 02:41:06;;;;;;;42.67;4.47;;;25.10;48.40;;;;;;5057317;28;20067;-63
2023/10/03 02:43:47;;;;;;;54.53;5.00;;;25.10;49.20;;;;;;5057425;28;20146;-63
2023/10/03 02:46:14;;;;;;;39.25;4.63;;;25.00;49.50;;;;;;5058246;28;20053;-65
2023/10/03 02:48:41;;;;;;;43.53;4.68;;;24.90;50.50;;;;;;5055161;28;20064;-65
2023/10/03 02:51:09;;;;;;;53.60;5.10;;;24.90;50.40;;;;;;5055526;28;20065;-64
2023/10/03 02:53:36;;;;;;;37.70;4.57;;;24.80;50.40;;;;;;5055124;28;20066;-64
2023/10/03 02:56:04;;;;;;;35.97;4.05;;;24.80;51.20;;;;;;5057133;28;20425;-65
2023/10/03 02:58:30;;;;;;;29.92;4.07;;;24.70;50.90;;;;;;5057997;28;20070;-63
2023/10/03 03:00:57;;;;;;;30.42;4.60;;;24.70;51.70;;;;;;5054021;28;20403;-62
2023/10/03 03:03:32;;;;;;;30.40;4.57;;;24.50;50.90;;;;;;5060164;28;20066;-64
2023/10/03 03:06:00;;;;;;;35.92;4.97;;;24.50;51.00;;;;;;5055943;28;20061;-64
2023/10/03 03:08:28;;;;;;;36.78;4.65;;;24.50;51.80;;;;;;5053906;28;20059;-65
2023/10/03 03:10:57;;;;;;;33.25;4.93;;;24.50;51.90;;;;;;5055967;28;20065;-64
2023/10/03 03:13:25;;;;;;;31.90;4.65;;;24.40;52.00;;;;;;5062205;28;20598;-65
2023/10/03 03:16:05;;;;;;;39.83;5.03;;;24.30;52.50;;;;;;5054449;28;20145;-63
2023/10/03 03:18:39;;;;;;;33.85;5.07;;;24.20;52.10;;;;;;5053619;28;20211;-66
2023/10/03 03:21:08;;;;;;;32.70;5.18;;;24.30;52.20;;;;;;5060204;28;20560;-66
2023/10/03 03:23:42;;;;;;;39.22;5.05;;;24.10;52.20;;;;;;5056439;28;20398;-66
2023/10/03 03:26:17;;;;;;;45.60;5.65;;;24.20;53.10;;;;;;5060815;28;20144;-66
2023/10/03 03:28:46;;;;;;;45.15;6.07;;;24.10;52.20;;;;;;5055857;28;20072;-64
2023/10/03 03:31:26;;;;;;;61.92;6.90;;;24.10;52.20;;;;;;5052327;28;20233;-65
2023/10/03 03:33:57;;;;;;;46.22;6.28;;;24.10;52.20;;;;;;5057385;28;20573;-66
2023/10/03 03:36:29;;;;;;;36.67;5.70;;;24.10;52.70;;;;;;5051730;28;20148;-66
2023/10/03 03:38:58;;;;;;;49.10;5.95;;;24.10;53.00;;;;;;5058159;28;20094;-65
2023/10/03 03:41:25;;;;;;;38.05;5.20;;;24.10;52.70;;;;;;5053112;28;20056;-64
2023/10/03 03:43:52;;;;;;;44.95;6.05;;;24.00;52.80;;;;;;5057820;28;20414;-64
2023/10/03 03:46:19;;;;;;;28.85;4.95;;;24.00;53.40;;;;;;5054222;28;20044;-66
2023/10/03 03:48:46;;;;;;;32.75;6.32;;;23.90;53.30;;;;;;5053271;28;20056;-66
2023/10/03 03:51:14;;;;;;;29.63;5.50;;;23.90;53.20;;;;;;5054700;28;20045;-65
2023/10/03 03:53:44;;;;;;;39.88;6.05;;;23.80;54.00;;;;;;5053338;28;20076;-67
2023/10/03 03:56:12;;;;;;;39.22;6.53;;;23.70;54.10;;;;;;5051106;28;20360;-66
2023/10/03 03:58:45;;;;;;;44.42;6.93;;;23.70;54.00;;;;;;5056599;28;20145;-67
2023/10/03 04:01:20;;;;;;;46.92;6.55;;;23.70;53.60;;;;;;5053707;28;20076;-66
2023/10/03 04:03:51;;;;;;;32.10;6.00;;;23.60;53.30;;;;;;5058514;28;20150;-65
2023/10/03 04:06:20;;;;;;;40.80;6.18;;;23.60;53.30;;;;;;5056540;28;20083;-64
2023/10/03 04:08:50;;;;;;;39.38;6.80;;;23.70;53.50;;;;;;5052472;28;20088;-65
2023/10/03 04:11:18;;;;;;;34.72;6.43;;;23.70;53.30;;;;;;5055891;28;20082;-65
2023/10/03 04:13:53;;;;;;;39.45;6.55;;;23.70;53.50;;;;;;5050435;28;20131;-64
2023/10/03 04:16:28;;;;;;;48.38;6.25;;;23.70;53.80;;;;;;5055249;28;20083;-66
2023/10/03 04:18:55;;;;;;;29.63;5.60;;;23.70;54.00;;;;;;5056058;28;20497;-67
2023/10/03 04:21:26;;;;;;;49.38;6.28;;;23.70;54.40;;;;;;5056450;28;20073;-69
2023/10/03 04:23:53;;;;;;;42.50;6.20;;;23.70;54.00;;;;;;5050882;28;20270;-66
2023/10/03 04:26:20;;;;;;;37.10;6.35;;;23.60;54.60;;;;;;5056834;28;20091;-66
2023/10/03 04:28:46;;;;;;;41.85;7.13;;;23.60;54.30;;;;;;5049491;28;20077;-66
2023/10/03 04:31:13;;;;;;;43.30;6.78;;;23.50;54.30;;;;;;5053654;28;20080;-67
2023/10/03 04:33:39;;;;;;;41.55;6.95;;;23.60;54.40;;;;;;5053454;28;20162;-67
2023/10/03 04:36:09;;;;;;;49.80;9.23;;;23.50;54.80;;;;;;5052188;28;20160;-65
2023/10/03 04:38:36;;;;;;;50.05;9.60;;;23.60;54.80;;;;;;5055641;28;20097;-66
2023/10/03 04:41:02;;;;;;;42.45;9.05;;;23.40;54.40;;;;;;5052461;28;20103;-66
2023/10/03 04:43:30;;;;;;;39.78;8.48;;;23.40;55.00;;;;;;5051484;28;20125;-65
2023/10/03 04:45:57;;;;;;;40.08;9.07;;;23.40;55.50;;;;;;5056091;28;20619;-65
2023/10/03 04:48:24;;;;;;;43.25;9.68;;;23.40;55.70;;;;;;5052135;28;20561;-66
2023/10/03 04:50:51;;;;;;;49.28;9.82;;;23.30;55.50;;;;;;5051067;28;20077;-67
2023/10/03 04:53:18;;;;;;;53.80;10.45;;;23.30;55.70;;;;;;5052321;28;20547;-64
2023/10/03 04:55:47;;;;;;;55.35;11.57;;;23.20;56.30;;;;;;5057029;28;20139;-63
2023/10/03 04:58:14;;;;;;;75.32;13.70;;;23.20;56.10;;;;;;5053939;28;20085;-65
2023/10/03 05:00:42;;;;;;;51.20;11.68;;;23.10;55.90;;;;;;5033399;28;20113;-67
2023/10/03 05:03:13;;;;;;;64.47;12.23;;;23.10;56.40;;;;;;5052206;28;20167;-64
2023/10/03 05:05:40;;;;;;;48.60;10.73;;;23.00;56.90;;;;;;5057909;28;20162;-66
2023/10/03 05:08:06;;;;;;;54.88;11.43;;;23.00;56.50;;;;;;5055202;28;20085;-66
2023/10/03 05:10:36;;;;;;;62.70;11.80;;;23.00;56.20;;;;;;5054307;28;20080;-64
2023/10/03 05:13:05;;;;;;;69.18;13.15;;;22.90;57.20;;;;;;5055919;28;20122;-66
2023/10/03 05:15:31;;;;;;;63.28;11.23;;;23.00;56.20;;;;;;5061277;28;20070;-66
2023/10/03 05:17:58;;;;;;;77.95;11.50;;;23.00;55.80;;;;;;5058990;28;20085;-66
2023/10/03 05:20:40;;;;;;;64.78;11.10;;;23.10;55.80;;;;;;5053530;28;20078;-66
2023/10/03 05:23:07;;;;;;;62.92;11.60;;;23.10;55.90;;;;;;5059775;28;20066;-64
2023/10/03 05:25:37;;;;;;;61.25;11.45;;;23.00;57.20;;;;;;5053087;28;20164;-66
2023/10/03 05:28:07;;;;;;;66.57;11.57;;;22.90;57.10;;;;;;5055184;28;20081;-66
2023/10/03 05:30:35;;;;;;;51.30;11.50;;;22.90;56.80;;;;;;5053110;28;20157;-65
2023/10/03 05:33:01;;;;;;;73.88;13.43;;;22.80;57.60;;;;;;5053989;28;20079;-67
2023/10/03 05:35:29;;;;;;;61.75;11.93;;;22.80;57.40;;;;;;5055946;28;20589;-63
2023/10/03 05:37:55;;;;;;;66.22;11.15;;;22.80;57.10;;;;;;5057902;28;20081;-66
2023/10/03 05:40:22;;;;;;;67.55;11.52;;;22.80;56.80;;;;;;5054285;28;20138;-67
2023/10/03 05:42:49;;;;;;;66.78;12.18;;;22.80;56.80;;;;;;5054909;28;20087;-66
2023/10/03 05:45:19;;;;;;;61.00;12.57;;;22.70;58.00;;;;;;5058373;28;20456;-65
2023/10/03 05:47:48;;;;;;;88.45;13.35;;;22.60;58.80;;;;;;5055395;28;20074;-67
2023/10/03 05:50:22;;;;;;;77.85;14.18;;;22.60;58.30;;;;;;5054889;28;20109;-66
2023/10/03 05:52:48;;;;;;;86.72;34.58;;;22.60;58.70;;;;;;5055142;28;20105;-64
2023/10/03 05:55:15;;;;;;;79.15;14.52;;;22.60;58.50;;;;;;5054196;28;20094;-67
2023/10/03 05:57:45;;;;;;;82.63;15.82;;;22.60;58.70;;;;;;5056298;28;20086;-68
2023/10/03 06:00:17;;;;;;;67.65;13.45;;;22.60;58.50;;;;;;5057812;28;20099;-67
2023/10/03 06:02:47;;;;;;;94.32;14.98;;;22.60;58.30;;;;;;5052850;28;20161;-66
2023/10/03 06:05:16;;;;;;;86.90;15.23;;;22.60;58.00;;;;;;5056841;28;20081;-66
2023/10/03 06:07:46;;;;;;;82.93;14.50;;;22.50;58.20;;;;;;5056106;28;20164;-65
2023/10/03 06:10:16;;;;;;;84.60;15.25;;;22.60;58.60;;;;;;5062018;28;20080;-65
2023/10/03 06:12:42;;;;;;;83.18;14.80;;;22.50;58.80;;;;;;5056241;28;20571;-66
2023/10/03 06:15:09;;;;;;;79.70;16.45;;;22.40;59.20;;;;;;5062847;28;20082;-66
2023/10/03 06:17:36;;;;;;;117.10;17.70;;;22.30;60.70;;;;;;5058695;28;20084;-65
2023/10/03 06:20:05;;;;;;;89.03;17.05;;;22.20;59.80;;;;;;5059067;28;20104;-66
2023/10/03 06:22:33;;;;;;;91.32;17.38;;;22.20;59.20;;;;;;5059116;28;21060;-65
2023/10/03 06:24:59;;;;;;;90.35;18.33;;;22.20;59.70;;;;;;5059327;28;20074;-66
2023/10/03 06:27:29;;;;;;;79.90;17.75;;;22.20;59.40;;;;;;5059291;28;20076;-66
2023/10/03 06:29:55;;;;;;;85.28;19.88;;;22.20;59.80;;;;;;5056639;28;20493;-64
2023/10/03 06:32:22;;;;;;;94.88;19.08;;;22.10;59.30;;;;;;5056292;28;20089;-67
2023/10/03 06:34:48;;;;;;;95.43;19.83;;;22.10;59.40;;;;;;5064705;28;20536;-65
2023/10/03 06:37:15;;;;;;;104.70;21.77;;;22.10;58.80;;;;;;5056960;28;20086;-65
2023/10/03 06:39:42;;;;;;;92.70;19.73;;;22.10;58.00;;;;;;5057029;28;20446;-66
2023/10/03 06:42:08;;;;;;;95.55;20.75;;;22.10;58.40;;;;;;5056958;28;20082;-64
2023/10/03 06:44:37;;;;;;;97.13;24.17;;;22.20;57.60;;;;;;5057588;28;20168;-64
2023/10/03 06:47:04;;;;;;;93.10;21.30;;;22.30;56.50;;;;;;5058367;28;20131;-66
2023/10/03 06:49:31;;;;;;;68.03;20.33;;;22.40;55.10;;;;;;5058290;28;20453;-67
2023/10/03 06:52:00;;;;;;;67.63;16.63;;;22.50;54.70;;;;;;5061107;28;20168;-65
2023/10/03 06:54:27;;;;;;;55.85;14.15;;;22.60;54.60;;;;;;5059225;28;20099;-65
2023/10/03 06:56:54;;;;;;;42.78;11.23;;;22.60;54.70;;;;;;5057531;28;20534;-65
2023/10/03 06:59:20;;;;;;;31.40;7.82;;;22.70;54.70;;;;;;5060260;28;20145;-65
2023/10/03 07:01:47;;;;;;;22.52;5.78;;;22.70;54.50;;;;;;5059279;28;20077;-64
2023/10/03 07:04:14;;;;;;;13.05;4.03;;;22.80;54.60;;;;;;5063011;28;20079;-65
2023/10/03 07:06:40;;;;;;;12.27;4.63;;;22.80;54.40;;;;;;5063864;28;20103;-65
2023/10/03 07:09:10;;;;;;;19.85;3.92;;;22.90;54.40;;;;;;5060656;28;20082;-64
2023/10/03 07:11:37;;;;;;;12.38;3.47;;;22.80;54.20;;;;;;5054283;28;20080;-66
2023/10/03 07:14:03;;;;;;;9.27;3.40;;;22.80;54.00;;;;;;5057124;28;20418;-65
2023/10/03 07:16:37;;;;;;;11.48;3.53;;;22.90;53.90;;;;;;5055417;28;20082;-63
2023/10/03 07:19:04;;;;;;;13.35;3.47;;;22.80;53.80;;;;;;5052752;28;20109;-64
2023/10/03 07:21:34;;;;;;;8.65;3.10;;;22.90;53.60;;;;;;5062343;28;20104;-64
2023/10/03 07:24:00;;;;;;;13.20;3.40;;;22.90;53.70;;;;;;5062356;28;20681;-64
2023/10/03 07:26:27;;;;;;;9.80;3.55;;;22.90;53.40;;;;;;5057082;28;20083;-64
2023/10/03 07:28:59;;;;;;;10.05;2.95;;;22.80;53.50;;;;;;5058957;28;20079;-65
2023/10/03 07:31:26;;;;;;;7.13;3.03;;;22.80;52.80;;;;;;5057896;28;20091;-66
2023/10/03 07:33:52;;;;;;;7.50;2.70;;;22.80;52.70;;;;;;5059175;28;20084;-64
2023/10/03 07:36:19;;;;;;;5.55;2.80;;;22.80;52.80;;;;;;5062185;28;20076;-65
2023/10/03 07:38:46;;;;;;;7.63;2.92;;;22.80;53.00;;;;;;5053821;28;20444;-66
2023/10/03 07:41:13;;;;;;;10.73;2.90;;;22.80;53.30;;;;;;5055298;28;20083;-65
2023/10/03 07:43:49;;;;;;;6.63;2.78;;;22.80;53.40;;;;;;5056265;28;20082;-65
2023/10/03 07:46:20;;;;;;;7.97;2.90;;;22.90;53.50;;;;;;5059519;28;20076;-65
2023/10/03 07:48:48;;;;;;;6.57;2.75;;;22.80;53.50;;;;;;5057631;28;20605;-65
2023/10/03 07:51:16;;;;;;;12.32;3.35;;;22.80;53.50;;;;;;5058983;28;20903;-65
2023/10/03 07:53:42;;;;;;;6.15;2.40;;;22.80;53.60;;;;;;5057929;28;20086;-66
2023/10/03 07:56:25;;;;;;;6.95;2.60;;;22.80;53.50;;;;;;5058316;28;20124;-66
2023/10/03 07:58:54;;;;;;;9.07;3.08;;;22.80;53.80;;;;;;5058169;28;20249;-65
2023/10/03 08:01:24;;;;;;;14.60;2.72;;;22.80;53.90;;;;;;5058733;28;20085;-65
2023/10/03 08:03:55;;;;;;;9.13;3.15;;;22.80;54.20;;;;;;5060630;28;20065;-65
2023/10/03 08:06:33;;;;;;;11.45;2.50;;;22.80;54.40;;;;;;5055572;28;20087;-66
2023/10/03 08:09:00;;;;;;;7.55;2.95;;;22.80;54.50;;;;;;5058526;28;20086;-65
2023/10/03 08:11:31;;;;;;;8.35;2.50;;;22.70;54.70;;;;;;5058808;28;20105;-66
2023/10/03 08:14:13;;;;;;;8.80;2.70;;;22.60;55.00;;;;;;5059186;28;20082;-65
2023/10/03 08:16:44;;;;;;;8.20;2.70;;;22.60;55.20;;;;;;5056167;28;20085;-65
2023/10/03 08:19:25;;;;;;;9.40;2.78;;;22.50;55.30;;;;;;5056720;28;20553;-66
2023/10/03 08:21:57;;;;;;;9.77;2.92;;;22.50;55.60;;;;;;5058342;28;20562;-66
2023/10/03 08:24:28;;;;;;;8.20;2.28;;;22.40;55.70;;;;;;5056146;28;20079;-66
2023/10/03 08:26:59;;;;;;;5.45;2.65;;;22.40;55.70;;;;;;5055167;28;20075;-66
2023/10/03 08:29:26;;;;;;;8.27;2.70;;;22.30;55.70;;;;;;5059078;28;20446;-66
2023/10/03 08:31:57;;;;;;;6.88;2.65;;;22.40;55.90;;;;;;5058074;28;20284;-61
2023/10/03 08:34:28;;;;;;;7.65;2.65;;;22.40;55.90;;;;;;5057041;28;20073;-58
2023/10/03 08:36:58;;;;;;;11.55;2.90;;;22.40;55.60;;;;;;5057230;28;20491;-60
2023/10/03 08:39:26;;;;;;;6.70;2.60;;;22.40;55.40;;;;;;5056567;28;20115;-62
2023/10/03 08:42:34;;;;;;;6.47;2.88;;;22.40;55.40;;;;;;5054963;28;20171;-60
2023/10/03 08:45:16;;;;;;;11.35;2.30;;;22.50;55.50;;;;;;5023819;28;20087;-58
2023/10/03 08:47:49;;;;;;;9.65;2.80;;;22.50;55.70;;;;;;5024519;28;20082;-60
2023/10/03 08:50:29;;;;;;;9.90;3.10;;;22.60;55.60;;;;;;5024615;28;20558;-63
2023/10/03 08:55:49;;;;;;;6.88;2.88;;;22.60;55.60;;;;;;5026515;28;20144;-59
2023/10/03 08:58:25;;;;;;;11.23;2.92;;;22.60;55.60;;;;;;4993973;28;20184;-64
2023/10/03 09:01:26;;;;;;;8.50;2.60;;;22.50;55.80;;;;;;5024246;28;20675;-63
2023/10/03 09:03:51;;;;;;;13.40;2.97;;;22.50;56.00;;;;;;5021882;28;20078;-60
2023/10/03 09:06:20;;;;;;;8.82;3.22;;;22.50;56.00;;;;;;5023182;28;20078;-60
2023/10/03 09:08:51;;;;;;;7.82;2.63;;;22.50;55.80;;;;;;4991401;28;20085;-62
2023/10/03 09:11:18;;;;;;;9.35;3.03;;;22.50;56.00;;;;;;5024872;28;20085;-62
2023/10/03 09:13:49;;;;;;;7.72;3.10;;;22.50;56.50;;;;;;5022452;28;20077;-60
2023/10/03 09:16:15;;;;;;;8.70;3.05;;;22.50;56.10;;;;;;5024079;28;20112;-61
2023/10/03 09:18:42;;;;;;;9.23;3.10;;;22.50;55.90;;;;;;5023272;28;20169;-61
2023/10/03 09:21:23;;;;;;;7.30;2.72;;;22.50;56.30;;;;;;5036423;28;20187;-60
2023/10/03 09:24:14;;;;;;;5.75;2.55;;;22.50;56.30;;;;;;5053563;28;20168;-61
2023/10/03 09:26:45;;;;;;;8.02;2.67;;;22.60;56.30;;;;;;5055278;28;20084;-62
2023/10/03 09:29:18;;;;;;;7.70;2.90;;;22.50;56.70;;;;;;5056385;28;20115;-59
2023/10/03 09:31:48;;;;;;;8.63;2.78;;;22.40;57.00;;;;;;5055864;28;20088;-60
2023/10/03 09:34:17;;;;;;;8.40;2.70;;;22.40;57.00;;;;;;5054154;28;20095;-63
2023/10/03 09:36:44;;;;;;;4.10;2.10;;;22.30;57.00;;;;;;5057978;28;20073;-62
2023/10/03 09:39:20;;;;;;;11.88;2.88;;;22.10;57.30;;;;;;5058046;28;20570;-59
2023/10/03 09:41:54;;;;;;;8.07;2.50;;;22.00;57.60;;;;;;5051502;28;20070;-61
2023/10/03 09:44:29;;;;;;;6.82;2.67;;;22.00;58.00;;;;;;5058202;28;20078;-61
2023/10/03 09:47:09;;;;;;;8.00;2.60;;;22.00;58.40;;;;;;5056538;28;20075;-60
2023/10/03 09:49:38;;;;;;;9.30;2.53;;;21.80;58.40;;;;;;5055834;28;20122;-62
2023/10/03 09:52:17;;;;;;;9.32;3.00;;;21.70;58.70;;;;;;5053622;28;20082;-60
2023/10/03 09:54:44;;;;;;;5.75;2.75;;;21.60;59.20;;;;;;5052231;28;20114;-61
2023/10/03 09:57:16;;;;;;;10.13;2.97;;;21.50;59.60;;;;;;5056090;28;20124;-62
2023/10/03 09:59:46;;;;;;;9.63;2.72;;;21.40;60.40;;;;;;5054661;28;20174;-62
2023/10/03 10:02:19;;;;;;;9.38;2.50;;;21.50;60.50;;;;;;5055726;28;20622;-61
2023/10/03 10:04:50;;;;;;;7.47;3.00;;;21.40;60.60;;;;;;5054807;28;20539;-60
2023/10/03 10:07:29;;;;;;;12.73;2.95;;;21.30;60.70;;;;;;5054626;28;20704;-61
2023/10/03 10:10:12;;;;;;;7.70;3.00;;;21.40;60.90;;;;;;5056074;28;20078;-60
2023/10/03 10:13:05;;;;;;;9.00;3.20;;;21.30;61.10;;;;;;5055733;28;20108;-62
2023/10/03 10:15:31;;;;;;;7.60;3.13;;;21.20;61.20;;;;;;5057205;28;20079;-64
2023/10/03 10:17:58;;;;;;;8.77;2.63;;;21.10;61.40;;;;;;5054812;28;20120;-62
2023/10/03 10:20:37;;;;;;;12.23;2.90;;;21.10;61.20;;;;;;5055824;28;20097;-61
2023/10/03 10:23:22;;;;;;;12.65;2.90;;;21.20;61.00;;;;;;5058015;28;20092;-63
2023/10/03 10:25:51;;;;;;;11.30;2.92;;;21.10;60.80;;;;;;5051929;28;20599;-63
2023/10/03 10:28:34;;;;;;;11.25;3.25;;;21.20;60.80;;;;;;5055009;28;20073;-61
2023/10/03 10:31:21;;;;;;;6.72;2.63;;;21.30;60.60;;;;;;5056665;28;20472;-62
2023/10/03 10:33:49;;;;;;;6.88;2.70;;;21.40;60.40;;;;;;5052278;28;20082;-60
2023/10/03 10:36:18;;;;;;;9.75;2.75;;;21.40;60.30;;;;;;5055594;28;20089;-63
2023/10/03 10:38:47;;;;;;;8.35;3.00;;;21.40;60.10;;;;;;5053974;28;20574;-63
2023/10/03 10:41:27;;;;;;;9.65;3.10;;;21.40;59.90;;;;;;5052249;28;20168;-64
2023/10/03 10:44:16;;;;;;;13.73;3.25;;;21.40;59.80;;;;;;5052907;28;20075;-63
2023/10/03 10:46:46;;;;;;;7.45;2.80;;;21.40;60.10;;;;;;5053647;28;20123;-63
2023/10/03 10:49:31;;;;;;;9.68;3.00;;;21.30;60.00;;;;;;5054024;28;20492;-63
2023/10/03 10:52:13;;;;;;;9.93;2.28;;;21.30;60.00;;;;;;5058027;28;20084;-62
2023/10/03 10:54:43;;;;;;;9.48;2.70;;;21.30;60.00;;;;;;5060773;28;20105;-63
2023/10/03 10:57:18;;;;;;;10.38;2.60;;;21.20;60.20;;;;;;5057944;28;20085;-60
2023/10/03 10:59:45;;;;;;;8.32;2.70;;;21.20;60.50;;;;;;5057894;28;20093;-68
2023/10/03 11:02:28;;;;;;;11.02;2.80;;;21.20;60.40;;;;;;5057783;28;21181;-62
2023/10/03 11:04:56;;;;;;;7.18;3.03;;;21.20;60.50;;;;;;5057669;28;20122;-61
2023/10/03 11:07:24;;;;;;;9.05;2.83;;;21.20;60.60;;;;;;5058612;28;20156;-60
2023/10/03 11:09:55;;;;;;;9.93;3.05;;;21.10;60.90;;;;;;5058576;28;20082;-62
2023/10/03 11:12:25;;;;;;;6.65;2.08;;;21.00;61.20;;;;;;5058962;28;20135;-62
2023/10/03 11:14:53;;;;;;;4.75;2.45;;;20.90;61.50;;;;;;5057174;28;20473;-63
2023/10/03 11:17:21;;;;;;;10.38;2.97;;;20.90;61.00;;;;;;5058201;28;20501;-60
2023/10/03 11:19:52;;;;;;;6.75;2.17;;;20.90;60.70;;;;;;5055622;28;20093;-59
2023/10/03 11:22:19;;;;;;;8.90;2.70;;;20.80;60.50;;;;;;5056514;28;20081;-63
2023/10/03 11:24:46;;;;;;;6.78;2.67;;;20.70;60.60;;;;;;5057762;28;20081;-63
2023/10/03 11:27:29;;;;;;;7.65;2.60;;;20.70;60.60;;;;;;5056479;28;20084;-61
2023/10/03 11:29:55;;;;;;;8.80;3.20;;;20.70;60.60;;;;;;5054349;28;20421;-62
2023/10/03 11:32:35;;;;;;;9.25;2.85;;;20.70;60.50;;;;;;5059006;28;20077;-61
2023/10/03 11:35:21;;;;;;;9.93;2.95;;;20.70;60.20;;;;;;5056262;28;20086;-62
2023/10/03 11:37:51;;;;;;;8.30;2.88;;;20.70;60.20;;;;;;5057846;28;20081;-63
2023/10/03 11:40:23;;;;;;;9.93;3.20;;;20.60;60.50;;;;;;5058186;28;20578;-61
2023/10/03 11:42:58;;;;;;;8.00;2.78;;;20.50;60.70;;;;;;5056345;28;20516;-60
2023/10/03 11:45:29;;;;;;;9.35;2.72;;;20.60;60.60;;;;;;5059646;28;20078;-62
2023/10/03 11:48:17;;;;;;;8.63;2.70;;;20.60;60.80;;;;;;5055900;28;20078;-63
2023/10/03 11:50:45;;;;;;;7.60;2.88;;;20.60;61.40;;;;;;5054648;28;20099;-62
2023/10/03 11:53:13;;;;;;;9.10;2.92;;;20.50;61.10;;;;;;5058022;28;20128;-62
2023/10/03 11:55:40;;;;;;;12.25;2.72;;;20.60;61.10;;;;;;5057698;28;20099;-59
2023/10/03 11:58:10;;;;;;;10.88;2.80;;;20.50;61.50;;;;;;5054498;28;20082;-61
2023/10/03 12:00:42;;;;;;;6.05;2.35;;;20.50;61.50;;;;;;5057232;28;20129;-62
2023/10/03 12:03:09;;;;;;;14.35;2.85;;;20.50;61.20;;;;;;5057965;28;20076;-60
2023/10/03 12:05:36;;;;;;;6.90;2.65;;;20.50;61.10;;;;;;5059581;28;20111;-61
2023/10/03 12:08:05;;;;;;;8.95;3.03;;;20.50;61.20;;;;;;5057267;28;20080;-63
2023/10/03 12:10:31;;;;;;;12.07;2.80;;;20.50;61.60;;;;;;5058330;28;20075;-64
2023/10/03 12:13:02;;;;;;;8.65;3.17;;;20.40;61.60;;;;;;5059820;28;20130;-61
2023/10/03 12:15:30;;;;;;;7.97;3.38;;;20.50;61.80;;;;;;5057054;28;20562;-62
2023/10/03 12:17:58;;;;;;;13.25;3.42;;;20.50;61.20;;;;;;5056728;28;20136;-60
2023/10/03 12:20:25;;;;;;;17.92;4.05;;;20.50;61.10;;;;;;5056538;28;20454;-62
2023/10/03 12:22:53;;;;;;;11.15;3.40;;;20.50;61.10;;;;;;5052728;28;20140;-59
2023/10/03 12:25:23;;;;;;;10.80;4.00;;;20.60;61.40;;;;;;5053672;28;20507;-61
2023/10/03 12:27:50;;;;;;;8.57;3.10;;;20.50;61.10;;;;;;5054918;28;20090;-63
2023/10/03 12:30:17;;;;;;;13.43;3.17;;;20.50;61.00;;;;;;5057247;28;20089;-62
2023/10/03 12:32:46;;;;;;;5.65;3.00;;;20.50;60.70;;;;;;5053278;28;20109;-61
2023/10/03 12:35:14;;;;;;;8.10;3.55;;;20.60;60.40;;;;;;5056130;28;20551;-62
2023/10/03 12:37:45;;;;;;;15.88;3.42;;;20.50;60.10;;;;;;5054353;28;20175;-60
2023/10/03 12:40:18;;;;;;;10.02;2.88;;;20.60;60.00;;;;;;5055088;28;20099;-64
2023/10/03 12:42:50;;;;;;;9.15;3.03;;;20.60;59.80;;;;;;5056716;28;20085;-61
2023/10/03 12:45:24;;;;;;;8.93;3.05;;;20.70;59.50;;;;;;5056281;28;20087;-62
2023/10/03 12:47:53;;;;;;;12.63;3.88;;;20.70;59.40;;;;;;5058630;28;20072;-64
2023/10/03 12:50:23;;;;;;;8.00;3.53;;;20.70;59.50;;;;;;5058355;28;20521;-63
2023/10/03 12:52:57;;;;;;;10.13;4.22;;;20.70;59.50;;;;;;5054254;28;20169;-63
2023/10/03 12:55:26;;;;;;;9.45;3.83;;;20.80;59.40;;;;;;5054290;28;20215;-62
2023/10/03 12:57:55;;;;;;;13.40;4.65;;;20.80;59.40;;;;;;5053726;28;20087;-60
2023/10/03 13:00:23;;;;;;;11.52;3.92;;;20.70;59.50;;;;;;5054236;28;20106;-61
2023/10/03 13:02:51;;;;;;;12.60;4.60;;;20.80;59.60;;;;;;5054262;28;20550;-63